Time,TemperatureF,DewpointF,PressureIn,WindDirection,WindDirectionDegrees,WindSpeedMPH,WindSpeedGustMPH,Humidity,HourlyPrecipIn,Conditions,Clouds,dailyrainin,SoftwareType,DateUTC
2013-02-07 15:57:00,52.6,36.9,0.00,SW,236,10.2,17.1,55,0.00,,,0.00,WUHU216CR1000,2013-02-07 23:57:00,
2013-02-07 16:02:00,51.4,36.7,0.00,WSW,237,9.5,17.1,57,0.00,,,0.00,WUHU216CR1000,2013-02-08 00:02:00,
2013-02-07 16:07:00,51.4,36.7,0.00,WSW,237,9.5,17.1,57,0.00,,,0.00,WUHU216CR1000,2013-02-08 00:07:00,
2013-02-07 16:17:00,51.1,36.3,0.00,WSW,248,8.4,15.3,57,0.00,,,0.00,WUHU216CR1000,2013-02-08 00:17:00,
2013-02-07 16:22:00,51.1,36.3,0.00,WSW,248,8.4,15.3,57,0.00,,,0.00,WUHU216CR1000,2013-02-08 00:22:00,
2013-02-07 16:32:00,51.4,37.2,0.00,WSW,242,8.1,17.1,58,0.00,,,0.00,WUHU216CR1000,2013-02-08 00:32:00,
2013-02-07 16:37:00,51.4,37.2,0.00,WSW,242,8.1,17.1,58,0.00,,,0.00,WUHU216CR1000,2013-02-08 00:37:00,
2013-02-07 16:47:00,50.9,37.5,0.00,WSW,243,7.0,13.5,60,0.00,,,0.00,WUHU216CR1000,2013-02-08 00:47:00,
2013-02-07 16:52:00,50.9,37.5,0.00,WSW,243,7.0,13.5,60,0.00,,,0.00,WUHU216CR1000,2013-02-08 00:52:00,
2013-02-07 17:02:00,50.2,37.8,0.00,WSW,246,5.2,9.9,62,0.00,,,0.00,WUHU216CR1000,2013-02-08 01:02:00,
2013-02-07 17:07:00,50.2,37.8,0.00,WSW,246,5.2,9.9,62,0.00,,,0.00,WUHU216CR1000,2013-02-08 01:07:00,
2013-02-07 17:17:00,49.1,37.3,0.00,WSW,254,6.1,15.3,64,0.00,,,0.00,WUHU216CR1000,2013-02-08 01:17:00,
2013-02-07 17:22:00,49.1,37.3,0.00,WSW,254,6.1,15.3,64,0.00,,,0.00,WUHU216CR1000,2013-02-08 01:22:00,
2013-02-07 17:32:00,48.2,37.5,0.00,WSW,244,6.0,13.5,67,0.00,,,0.00,WUHU216CR1000,2013-02-08 01:32:00,
2013-02-07 17:37:00,48.2,37.5,0.00,WSW,244,6.0,13.5,67,0.00,,,0.00,WUHU216CR1000,2013-02-08 01:37:00,
2013-02-07 17:47:00,47.4,38.0,0.00,WSW,241,6.2,11.7,70,0.00,,,0.00,WUHU216CR1000,2013-02-08 01:47:00,
2013-02-07 17:52:00,47.4,38.0,0.00,WSW,241,6.2,11.7,70,0.00,,,0.00,WUHU216CR1000,2013-02-08 01:52:00,
2013-02-07 18:02:00,46.9,38.2,0.00,WSW,245,5.5,9.9,71,0.00,,,0.00,WUHU216CR1000,2013-02-08 02:02:00,
2013-02-07 18:07:00,46.9,38.2,0.00,WSW,245,5.5,9.9,71,0.00,,,0.00,WUHU216CR1000,2013-02-08 02:07:00,
2013-02-07 18:17:00,46.4,38.1,0.00,WSW,251,3.4,9.9,73,0.00,,,0.00,WUHU216CR1000,2013-02-08 02:17:00,
2013-02-07 18:22:00,46.4,38.1,0.00,WSW,251,3.4,9.9,73,0.00,,,0.00,WUHU216CR1000,2013-02-08 02:22:00,
2013-02-07 18:27:00,46.4,38.1,0.00,WSW,251,3.4,9.9,73,0.00,,,0.00,WUHU216CR1000,2013-02-08 02:27:00,
2013-02-07 18:32:00,46.1,38.1,0.00,WSW,251,5.7,11.7,74,0.00,,,0.00,WUHU216CR1000,2013-02-08 02:32:00,
2013-02-07 18:37:00,46.1,38.1,0.00,WSW,251,5.7,11.7,74,0.00,,,0.00,WUHU216CR1000,2013-02-08 02:37:00,
2013-02-07 18:47:00,45.7,40.0,0.00,West,265,6.6,13.5,80,0.00,,,0.00,WUHU216CR1000,2013-02-08 02:47:00,
2013-02-07 18:52:00,45.7,40.0,0.00,West,265,6.6,13.5,80,0.00,,,0.00,WUHU216CR1000,2013-02-08 02:52:00,
2013-02-07 19:02:00,44.8,40.4,0.00,West,276,3.7,8.2,84,0.00,,,0.00,WUHU216CR1000,2013-02-08 03:02:00,
2013-02-07 19:07:00,44.8,40.4,0.00,West,276,3.7,8.2,84,0.00,,,0.00,WUHU216CR1000,2013-02-08 03:07:00,
2013-02-07 19:17:00,44.3,40.3,0.00,North,350,1.6,4.6,86,0.00,,,0.00,WUHU216CR1000,2013-02-08 03:17:00,
2013-02-07 19:22:00,44.3,40.3,0.00,North,350,1.6,4.6,86,0.00,,,0.00,WUHU216CR1000,2013-02-08 03:22:00,
2013-02-07 19:32:00,43.8,40.5,0.00,South,169,0.6,2.8,88,0.00,,,0.00,WUHU216CR1000,2013-02-08 03:32:00,
2013-02-07 19:37:00,43.8,40.5,0.00,South,169,0.6,2.8,88,0.00,,,0.00,WUHU216CR1000,2013-02-08 03:37:00,
2013-02-07 19:47:00,43.5,40.2,0.00,SSW,211,1.4,4.6,88,0.00,,,0.00,WUHU216CR1000,2013-02-08 03:47:00,
2013-02-07 19:52:00,43.5,40.2,0.00,SSW,211,1.4,4.6,88,0.00,,,0.00,WUHU216CR1000,2013-02-08 03:52:00,
2013-02-07 20:02:00,42.5,39.4,0.00,WSW,253,2.1,4.6,89,0.00,,,0.00,WUHU216CR1000,2013-02-08 04:02:00,
2013-02-07 20:07:00,42.5,39.4,0.00,WSW,253,2.1,4.6,89,0.00,,,0.00,WUHU216CR1000,2013-02-08 04:07:00,
2013-02-07 20:17:00,41.3,38.8,0.00,West,264,2.7,4.6,91,0.00,,,0.00,WUHU216CR1000,2013-02-08 04:17:00,
2013-02-07 20:22:00,41.3,38.8,0.00,West,264,2.7,4.6,91,0.00,,,0.00,WUHU216CR1000,2013-02-08 04:22:00,
2013-02-07 20:32:00,40.3,38.0,0.00,West,275,2.8,4.6,91,0.00,,,0.00,WUHU216CR1000,2013-02-08 04:32:00,
2013-02-07 20:37:00,40.3,38.0,0.00,West,275,2.8,4.6,91,0.00,,,0.00,WUHU216CR1000,2013-02-08 04:37:00,
2013-02-07 20:47:00,40.0,37.8,0.00,NW,310,1.5,4.6,92,0.00,,,0.00,WUHU216CR1000,2013-02-08 04:47:00,
2013-02-07 20:52:00,40.0,37.8,0.00,NW,310,1.5,4.6,92,0.00,,,0.00,WUHU216CR1000,2013-02-08 04:52:00,
2013-02-07 21:02:00,39.2,37.1,0.00,NNW,327,2.3,4.6,92,0.00,,,0.00,WUHU216CR1000,2013-02-08 05:02:00,
2013-02-07 21:07:00,39.2,37.1,0.00,NNW,327,2.3,4.6,92,0.00,,,0.00,WUHU216CR1000,2013-02-08 05:07:00,
2013-02-07 21:17:00,39.3,37.4,0.00,NW,309,2.5,6.4,93,0.00,,,0.00,WUHU216CR1000,2013-02-08 05:17:00,
2013-02-07 21:22:00,39.3,37.4,0.00,NW,309,2.5,6.4,93,0.00,,,0.00,WUHU216CR1000,2013-02-08 05:22:00,
2013-02-07 21:32:00,38.9,36.9,0.00,WNW,288,1.6,4.6,92,0.00,,,0.00,WUHU216CR1000,2013-02-08 05:32:00,
2013-02-07 21:37:00,38.9,36.9,0.00,WNW,288,1.6,4.6,92,0.00,,,0.00,WUHU216CR1000,2013-02-08 05:37:00,
2013-02-07 21:47:00,37.9,36.1,0.00,NNW,328,2.2,4.6,93,0.00,,,0.00,WUHU216CR1000,2013-02-08 05:47:00,
2013-02-07 21:52:00,37.9,36.1,0.00,NNW,328,2.2,4.6,93,0.00,,,0.00,WUHU216CR1000,2013-02-08 05:52:00,
2013-02-07 21:57:00,37.9,36.1,0.00,NNW,328,2.2,4.6,93,0.00,,,0.00,WUHU216CR1000,2013-02-08 05:57:00,
2013-02-07 22:02:00,37.4,35.8,0.00,West,275,2.6,4.6,94,0.00,,,0.00,WUHU216CR1000,2013-02-08 06:02:00,
2013-02-07 22:07:00,37.4,35.8,0.00,West,275,2.6,4.6,94,0.00,,,0.00,WUHU216CR1000,2013-02-08 06:07:00,
2013-02-07 22:17:00,37.1,35.6,0.00,NNW,340,1.8,4.6,94,0.00,,,0.00,WUHU216CR1000,2013-02-08 06:17:00,
2013-02-07 22:22:00,37.1,35.6,0.00,NNW,340,1.8,4.6,94,0.00,,,0.00,WUHU216CR1000,2013-02-08 06:22:00,
2013-02-07 22:32:00,36.3,34.9,0.00,West,271,0.6,4.6,95,0.00,,,0.00,WUHU216CR1000,2013-02-08 06:32:00,
2013-02-07 22:37:00,36.3,34.9,0.00,West,271,0.6,4.6,95,0.00,,,0.00,WUHU216CR1000,2013-02-08 06:37:00,
2013-02-07 22:47:00,36.2,34.9,0.00,NNW,331,1.2,6.4,95,0.00,,,0.00,WUHU216CR1000,2013-02-08 06:47:00,
2013-02-07 22:52:00,36.2,34.9,0.00,NNW,331,1.2,6.4,95,0.00,,,0.00,WUHU216CR1000,2013-02-08 06:52:00,
2013-02-07 23:02:00,36.6,35.5,0.00,WNW,290,1.0,2.8,96,0.00,,,0.00,WUHU216CR1000,2013-02-08 07:02:00,
2013-02-07 23:07:00,36.6,35.5,0.00,WNW,290,1.0,2.8,96,0.00,,,0.00,WUHU216CR1000,2013-02-08 07:07:00,
2013-02-07 23:17:00,36.8,35.5,0.00,North,352,1.0,4.6,95,0.00,,,0.00,WUHU216CR1000,2013-02-08 07:17:00,
2013-02-07 23:22:00,36.8,35.5,0.00,North,352,1.0,4.6,95,0.00,,,0.00,WUHU216CR1000,2013-02-08 07:22:00,
2013-02-07 23:32:00,35.8,34.5,0.00,NNE,15,0.0,2.8,95,0.00,,,0.00,WUHU216CR1000,2013-02-08 07:32:00,
2013-02-07 23:37:00,35.8,34.5,0.00,NNE,15,0.0,2.8,95,0.00,,,0.00,WUHU216CR1000,2013-02-08 07:37:00,
2013-02-07 23:47:00,35.5,34.4,0.00,NNW,344,1.8,4.6,96,0.00,,,0.00,WUHU216CR1000,2013-02-08 07:47:00,
2013-02-07 23:52:00,35.5,34.4,0.00,NNW,344,1.8,4.6,96,0.00,,,0.00,WUHU216CR1000,2013-02-08 07:52:00,